sensor_id;sensor_type;location;lat;lon;timestamp;pressure;altitude;pressure_sealevel;temperature
22322;BMP180;11328;53.928;18.522;2023-10-09T00:02:11;100864.00;;;5.40
22322;BMP180;11328;53.928;18.522;2023-10-09T00:04:38;100866.00;;;5.40
22322;BMP180;11328;53.928;18.522;2023-10-09T00:07:10;100856.00;;;5.30
22322;BMP180;11328;53.928;18.522;2023-10-09T00:09:38;100851.00;;;5.30
22322;BMP180;11328;53.928;18.522;2023-10-09T00:12:20;100847.00;;;5.30
22322;BMP180;11328;53.928;18.522;2023-10-09T00:14:52;100859.00;;;5.40
22322;BMP180;11328;53.928;18.522;2023-10-09T00:17:23;100846.00;;;5.40
22322;BMP180;11328;53.928;18.522;2023-10-09T00:19:51;100845.00;;;5.40
22322;BMP180;11328;53.928;18.522;2023-10-09T00:22:19;100830.00;;;5.40
22322;BMP180;11328;53.928;18.522;2023-10-09T00:24:58;100828.00;;;5.30
22322;BMP180;11328;53.928;18.522;2023-10-09T00:27:42;100815.00;;;5.30
22322;BMP180;11328;53.928;18.522;2023-10-09T00:30:15;100820.00;;;5.30
22322;BMP180;11328;53.928;18.522;2023-10-09T00:32:48;100816.00;;;5.30
22322;BMP180;11328;53.928;18.522;2023-10-09T00:35:38;100818.00;;;5.30
22322;BMP180;11328;53.928;18.522;2023-10-09T00:38:11;100832.00;;;5.40
22322;BMP180;11328;53.928;18.522;2023-10-09T00:40:50;100811.00;;;5.30
22322;BMP180;11328;53.928;18.522;2023-10-09T00:43:29;100798.00;;;5.30
22322;BMP180;11328;53.928;18.522;2023-10-09T00:45:59;100776.00;;;5.30
22322;BMP180;11328;53.928;18.522;2023-10-09T00:48:37;100801.00;;;5.30
22322;BMP180;11328;53.928;18.522;2023-10-09T00:51:08;100806.00;;;5.20
22322;BMP180;11328;53.928;18.522;2023-10-09T00:53:52;100794.00;;;5.30
22322;BMP180;11328;53.928;18.522;2023-10-09T00:56:23;100799.00;;;5.30
22322;BMP180;11328;53.928;18.522;2023-10-09T00:58:57;100802.00;;;5.20
22322;BMP180;11328;53.928;18.522;2023-10-09T01:01:36;100805.00;;;5.20
22322;BMP180;11328;53.928;18.522;2023-10-09T01:04:07;100777.00;;;5.20
22322;BMP180;11328;53.928;18.522;2023-10-09T01:06:46;100812.00;;;5.00
22322;BMP180;11328;53.928;18.522;2023-10-09T01:09:36;100815.00;;;5.10
22322;BMP180;11328;53.928;18.522;2023-10-09T01:12:05;100803.00;;;5.30
22322;BMP180;11328;53.928;18.522;2023-10-09T01:14:32;100812.00;;;5.30
22322;BMP180;11328;53.928;18.522;2023-10-09T01:17:04;100798.00;;;5.30
22322;BMP180;11328;53.928;18.522;2023-10-09T01:19:38;100802.00;;;5.30
22322;BMP180;11328;53.928;18.522;2023-10-09T01:22:05;100768.00;;;5.30
22322;BMP180;11328;53.928;18.522;2023-10-09T01:24:40;100793.00;;;5.30
22322;BMP180;11328;53.928;18.522;2023-10-09T01:27:08;100795.00;;;5.40
22322;BMP180;11328;53.928;18.522;2023-10-09T01:29:43;100798.00;;;5.40
22322;BMP180;11328;53.928;18.522;2023-10-09T01:32:13;100796.00;;;5.30
22322;BMP180;11328;53.928;18.522;2023-10-09T01:34:44;100792.00;;;5.30
22322;BMP180;11328;53.928;18.522;2023-10-09T01:37:15;100797.00;;;5.20
22322;BMP180;11328;53.928;18.522;2023-10-09T01:39:51;100801.00;;;5.20
22322;BMP180;11328;53.928;18.522;2023-10-09T01:42:20;100819.00;;;5.10
22322;BMP180;11328;53.928;18.522;2023-10-09T01:44:57;100814.00;;;5.10
22322;BMP180;11328;53.928;18.522;2023-10-09T01:47:54;100812.00;;;5.20
22322;BMP180;11328;53.928;18.522;2023-10-09T01:50:22;100812.00;;;5.30
22322;BMP180;11328;53.928;18.522;2023-10-09T01:52:53;100803.00;;;5.20
22322;BMP180;11328;53.928;18.522;2023-10-09T01:55:20;100791.00;;;5.20
22322;BMP180;11328;53.928;18.522;2023-10-09T01:58:04;100803.00;;;5.20
22322;BMP180;11328;53.928;18.522;2023-10-09T02:01:03;100798.00;;;5.20
22322;BMP180;11328;53.928;18.522;2023-10-09T02:03:32;100785.00;;;5.10
22322;BMP180;11328;53.928;18.522;2023-10-09T02:06:04;100782.00;;;5.10
22322;BMP180;11328;53.928;18.522;2023-10-09T02:08:31;100785.00;;;5.10
22322;BMP180;11328;53.928;18.522;2023-10-09T02:11:02;100786.00;;;5.20
22322;BMP180;11328;53.928;18.522;2023-10-09T02:13:30;100784.00;;;5.20
22322;BMP180;11328;53.928;18.522;2023-10-09T02:15:58;100778.00;;;5.20
22322;BMP180;11328;53.928;18.522;2023-10-09T02:18:39;100774.00;;;5.30
22322;BMP180;11328;53.928;18.522;2023-10-09T02:21:08;100762.00;;;5.20
22322;BMP180;11328;53.928;18.522;2023-10-09T02:23:36;100764.00;;;5.30
22322;BMP180;11328;53.928;18.522;2023-10-09T02:26:19;100761.00;;;5.30
22322;BMP180;11328;53.928;18.522;2023-10-09T02:28:46;100757.00;;;5.40
22322;BMP180;11328;53.928;18.522;2023-10-09T02:31:20;100758.00;;;5.40
22322;BMP180;11328;53.928;18.522;2023-10-09T02:33:49;100751.00;;;5.50
22322;BMP180;11328;53.928;18.522;2023-10-09T02:36:22;100746.00;;;5.50
22322;BMP180;11328;53.928;18.522;2023-10-09T02:38:50;100757.00;;;5.40
22322;BMP180;11328;53.928;18.522;2023-10-09T02:41:20;100743.00;;;5.30
22322;BMP180;11328;53.928;18.522;2023-10-09T02:43:50;100666.00;;;5.30
22322;BMP180;11328;53.928;18.522;2023-10-09T02:46:18;100734.00;;;5.30
22322;BMP180;11328;53.928;18.522;2023-10-09T02:48:48;100734.00;;;5.50
22322;BMP180;11328;53.928;18.522;2023-10-09T02:51:20;100717.00;;;5.60
22322;BMP180;11328;53.928;18.522;2023-10-09T02:54:04;100714.00;;;5.70
22322;BMP180;11328;53.928;18.522;2023-10-09T02:56:53;100720.00;;;5.80
22322;BMP180;11328;53.928;18.522;2023-10-09T02:59:34;100725.00;;;5.70
22322;BMP180;11328;53.928;18.522;2023-10-09T03:02:01;100716.00;;;5.70
22322;BMP180;11328;53.928;18.522;2023-10-09T03:04:28;100715.00;;;5.70
22322;BMP180;11328;53.928;18.522;2023-10-09T03:07:00;100714.00;;;5.70
22322;BMP180;11328;53.928;18.522;2023-10-09T03:09:28;100710.00;;;5.80
22322;BMP180;11328;53.928;18.522;2023-10-09T03:12:01;100701.00;;;5.60
22322;BMP180;11328;53.928;18.522;2023-10-09T03:14:37;100700.00;;;5.60
22322;BMP180;11328;53.928;18.522;2023-10-09T03:17:08;100697.00;;;5.60
22322;BMP180;11328;53.928;18.522;2023-10-09T03:19:38;100695.00;;;5.60
22322;BMP180;11328;53.928;18.522;2023-10-09T03:22:07;100689.00;;;5.60
22322;BMP180;11328;53.928;18.522;2023-10-09T03:24:39;100686.00;;;5.80
22322;BMP180;11328;53.928;18.522;2023-10-09T03:27:15;100677.00;;;5.80
22322;BMP180;11328;53.928;18.522;2023-10-09T03:29:42;100681.00;;;5.70
22322;BMP180;11328;53.928;18.522;2023-10-09T03:32:16;100684.00;;;5.80
22322;BMP180;11328;53.928;18.522;2023-10-09T03:34:43;100682.00;;;5.70
22322;BMP180;11328;53.928;18.522;2023-10-09T03:37:11;100664.00;;;5.80
22322;BMP180;11328;53.928;18.522;2023-10-09T03:40:05;100651.00;;;5.70
22322;BMP180;11328;53.928;18.522;2023-10-09T03:42:34;100626.00;;;5.80
22322;BMP180;11328;53.928;18.522;2023-10-09T03:45:04;100650.00;;;5.90
22322;BMP180;11328;53.928;18.522;2023-10-09T03:47:40;100662.00;;;5.90
22322;BMP180;11328;53.928;18.522;2023-10-09T03:50:15;100654.00;;;5.90
22322;BMP180;11328;53.928;18.522;2023-10-09T03:52:53;100652.00;;;5.90
22322;BMP180;11328;53.928;18.522;2023-10-09T03:55:22;100649.00;;;5.90
22322;BMP180;11328;53.928;18.522;2023-10-09T03:57:56;100655.00;;;5.90
22322;BMP180;11328;53.928;18.522;2023-10-09T04:00:29;100654.00;;;5.90
22322;BMP180;11328;53.928;18.522;2023-10-09T04:02:58;100655.00;;;5.90
22322;BMP180;11328;53.928;18.522;2023-10-09T04:05:26;100661.00;;;5.90
22322;BMP180;11328;53.928;18.522;2023-10-09T04:07:55;100664.00;;;5.90
22322;BMP180;11328;53.928;18.522;2023-10-09T04:10:25;100660.00;;;5.70
22322;BMP180;11328;53.928;18.522;2023-10-09T04:13:11;100673.00;;;5.70
22322;BMP180;11328;53.928;18.522;2023-10-09T04:15:43;100663.00;;;5.70
22322;BMP180;11328;53.928;18.522;2023-10-09T04:18:10;100660.00;;;5.70
22322;BMP180;11328;53.928;18.522;2023-10-09T04:20:42;100636.00;;;5.70
22322;BMP180;11328;53.928;18.522;2023-10-09T04:23:28;100641.00;;;5.70
22322;BMP180;11328;53.928;18.522;2023-10-09T04:26:14;100644.00;;;5.80
22322;BMP180;11328;53.928;18.522;2023-10-09T04:28:41;100649.00;;;5.90
22322;BMP180;11328;53.928;18.522;2023-10-09T04:31:09;100654.00;;;5.90
22322;BMP180;11328;53.928;18.522;2023-10-09T04:33:36;100649.00;;;5.90
22322;BMP180;11328;53.928;18.522;2023-10-09T04:36:21;100649.00;;;5.80
22322;BMP180;11328;53.928;18.522;2023-10-09T04:38:52;100654.00;;;5.80
22322;BMP180;11328;53.928;18.522;2023-10-09T04:41:26;100655.00;;;5.80
22322;BMP180;11328;53.928;18.522;2023-10-09T04:44:00;100662.00;;;5.90
22322;BMP180;11328;53.928;18.522;2023-10-09T04:46:51;100653.00;;;6.00
22322;BMP180;11328;53.928;18.522;2023-10-09T04:49:40;100637.00;;;6.00
22322;BMP180;11328;53.928;18.522;2023-10-09T04:52:33;100641.00;;;6.10
22322;BMP180;11328;53.928;18.522;2023-10-09T04:55:00;100629.00;;;6.10
22322;BMP180;11328;53.928;18.522;2023-10-09T04:57:42;100639.00;;;6.10
22322;BMP180;11328;53.928;18.522;2023-10-09T05:00:18;100637.00;;;6.10
22322;BMP180;11328;53.928;18.522;2023-10-09T05:03:01;100618.00;;;6.10
22322;BMP180;11328;53.928;18.522;2023-10-09T05:05:38;100621.00;;;6.20
22322;BMP180;11328;53.928;18.522;2023-10-09T05:08:17;100604.00;;;6.20
22322;BMP180;11328;53.928;18.522;2023-10-09T05:10:54;100566.00;;;6.20
22322;BMP180;11328;53.928;18.522;2023-10-09T05:13:36;100605.00;;;6.20
22322;BMP180;11328;53.928;18.522;2023-10-09T05:16:15;100600.00;;;6.10
22322;BMP180;11328;53.928;18.522;2023-10-09T05:18:56;100596.00;;;6.20
22322;BMP180;11328;53.928;18.522;2023-10-09T05:21:34;100588.00;;;6.30
22322;BMP180;11328;53.928;18.522;2023-10-09T05:24:03;100601.00;;;6.40
22322;BMP180;11328;53.928;18.522;2023-10-09T05:26:45;100599.00;;;6.40
22322;BMP180;11328;53.928;18.522;2023-10-09T05:29:26;100600.00;;;6.40
22322;BMP180;11328;53.928;18.522;2023-10-09T05:32:06;100579.00;;;6.50
22322;BMP180;11328;53.928;18.522;2023-10-09T05:34:43;100612.00;;;6.60
22322;BMP180;11328;53.928;18.522;2023-10-09T05:37:30;100632.00;;;6.40
22322;BMP180;11328;53.928;18.522;2023-10-09T05:40:06;100623.00;;;6.40
22322;BMP180;11328;53.928;18.522;2023-10-09T05:42:46;100621.00;;;6.30
22322;BMP180;11328;53.928;18.522;2023-10-09T05:45:26;100621.00;;;6.30
22322;BMP180;11328;53.928;18.522;2023-10-09T05:48:12;100587.00;;;6.50
22322;BMP180;11328;53.928;18.522;2023-10-09T05:50:39;100604.00;;;6.70
22322;BMP180;11328;53.928;18.522;2023-10-09T05:53:27;100608.00;;;6.70
22322;BMP180;11328;53.928;18.522;2023-10-09T05:56:12;100614.00;;;6.70
22322;BMP180;11328;53.928;18.522;2023-10-09T05:58:55;100621.00;;;6.60
22322;BMP180;11328;53.928;18.522;2023-10-09T06:01:40;100605.00;;;6.40
22322;BMP180;11328;53.928;18.522;2023-10-09T06:04:26;100606.00;;;6.40
22322;BMP180;11328;53.928;18.522;2023-10-09T06:07:12;100604.00;;;6.50
22322;BMP180;11328;53.928;18.522;2023-10-09T06:09:40;100601.00;;;6.40
22322;BMP180;11328;53.928;18.522;2023-10-09T06:12:21;100582.00;;;6.40
22322;BMP180;11328;53.928;18.522;2023-10-09T06:15:01;100583.00;;;6.50
22322;BMP180;11328;53.928;18.522;2023-10-09T06:17:58;100589.00;;;6.80
22322;BMP180;11328;53.928;18.522;2023-10-09T06:20:45;100594.00;;;6.80
22322;BMP180;11328;53.928;18.522;2023-10-09T06:23:30;100582.00;;;6.80
22322;BMP180;11328;53.928;18.522;2023-10-09T06:26:29;100583.00;;;6.90
22322;BMP180;11328;53.928;18.522;2023-10-09T06:28:59;100597.00;;;6.90
22322;BMP180;11328;53.928;18.522;2023-10-09T06:31:42;100591.00;;;7.10
22322;BMP180;11328;53.928;18.522;2023-10-09T06:34:28;100593.00;;;7.40
22322;BMP180;11328;53.928;18.522;2023-10-09T06:37:14;100591.00;;;7.70
22322;BMP180;11328;53.928;18.522;2023-10-09T06:39:52;100595.00;;;7.80
22322;BMP180;11328;53.928;18.522;2023-10-09T06:42:28;100593.00;;;8.00
22322;BMP180;11328;53.928;18.522;2023-10-09T06:45:11;100610.00;;;8.30
22322;BMP180;11328;53.928;18.522;2023-10-09T06:47:50;100580.00;;;8.60
22322;BMP180;11328;53.928;18.522;2023-10-09T06:50:26;100608.00;;;8.60
22322;BMP180;11328;53.928;18.522;2023-10-09T06:53:13;100614.00;;;8.70
22322;BMP180;11328;53.928;18.522;2023-10-09T06:55:41;100617.00;;;8.80
22322;BMP180;11328;53.928;18.522;2023-10-09T06:58:19;100618.00;;;9.00
22322;BMP180;11328;53.928;18.522;2023-10-09T07:00:53;100622.00;;;9.20
22322;BMP180;11328;53.928;18.522;2023-10-09T07:03:29;100629.00;;;9.30
22322;BMP180;11328;53.928;18.522;2023-10-09T07:06:08;100630.00;;;9.30
22322;BMP180;11328;53.928;18.522;2023-10-09T07:08:55;100639.00;;;9.40
22322;BMP180;11328;53.928;18.522;2023-10-09T07:11:40;100633.00;;;9.60
22322;BMP180;11328;53.928;18.522;2023-10-09T07:14:08;100637.00;;;9.50
22322;BMP180;11328;53.928;18.522;2023-10-09T07:19:43;100634.00;;;9.60
22322;BMP180;11328;53.928;18.522;2023-10-09T07:22:11;100629.00;;;9.60
22322;BMP180;11328;53.928;18.522;2023-10-09T07:24:51;100637.00;;;9.90
22322;BMP180;11328;53.928;18.522;2023-10-09T07:27:28;100639.00;;;10.10
22322;BMP180;11328;53.928;18.522;2023-10-09T07:30:19;100637.00;;;10.00
22322;BMP180;11328;53.928;18.522;2023-10-09T07:33:04;100646.00;;;9.80
22322;BMP180;11328;53.928;18.522;2023-10-09T07:35:41;100651.00;;;9.80
22322;BMP180;11328;53.928;18.522;2023-10-09T07:38:11;100655.00;;;9.80
22322;BMP180;11328;53.928;18.522;2023-10-09T07:40:39;100665.00;;;10.00
22322;BMP180;11328;53.928;18.522;2023-10-09T07:43:30;100675.00;;;10.10
22322;BMP180;11328;53.928;18.522;2023-10-09T07:46:07;100660.00;;;9.90
22322;BMP180;11328;53.928;18.522;2023-10-09T07:48:55;100657.00;;;10.10
22322;BMP180;11328;53.928;18.522;2023-10-09T07:51:24;100657.00;;;10.20
22322;BMP180;11328;53.928;18.522;2023-10-09T07:53:59;100653.00;;;10.50
22322;BMP180;11328;53.928;18.522;2023-10-09T07:56:41;100655.00;;;10.50
22322;BMP180;11328;53.928;18.522;2023-10-09T07:59:08;100648.00;;;10.60
22322;BMP180;11328;53.928;18.522;2023-10-09T08:01:46;100646.00;;;10.80
22322;BMP180;11328;53.928;18.522;2023-10-09T08:04:20;100629.00;;;11.10
22322;BMP180;11328;53.928;18.522;2023-10-09T08:07:08;100656.00;;;11.10
22322;BMP180;11328;53.928;18.522;2023-10-09T08:09:56;100655.00;;;11.20
22322;BMP180;11328;53.928;18.522;2023-10-09T08:12:55;100639.00;;;11.10
22322;BMP180;11328;53.928;18.522;2023-10-09T08:15:25;100636.00;;;11.20
22322;BMP180;11328;53.928;18.522;2023-10-09T08:18:15;100629.00;;;11.10
22322;BMP180;11328;53.928;18.522;2023-10-09T08:20:55;100624.00;;;11.10
22322;BMP180;11328;53.928;18.522;2023-10-09T08:23:26;100624.00;;;11.10
22322;BMP180;11328;53.928;18.522;2023-10-09T08:26:12;100622.00;;;11.30
22322;BMP180;11328;53.928;18.522;2023-10-09T08:28:41;100610.00;;;11.30
22322;BMP180;11328;53.928;18.522;2023-10-09T08:31:15;100603.00;;;11.50
22322;BMP180;11328;53.928;18.522;2023-10-09T08:34:01;100595.00;;;11.60
22322;BMP180;11328;53.928;18.522;2023-10-09T08:36:31;100596.00;;;11.60
22322;BMP180;11328;53.928;18.522;2023-10-09T08:39:16;100594.00;;;11.70
22322;BMP180;11328;53.928;18.522;2023-10-09T08:41:44;100553.00;;;12.00
22322;BMP180;11328;53.928;18.522;2023-10-09T08:44:12;100597.00;;;12.40
22322;BMP180;11328;53.928;18.522;2023-10-09T08:46:42;100574.00;;;12.50
22322;BMP180;11328;53.928;18.522;2023-10-09T08:49:11;100573.00;;;12.60
22322;BMP180;11328;53.928;18.522;2023-10-09T08:51:39;100567.00;;;12.60
22322;BMP180;11328;53.928;18.522;2023-10-09T08:54:08;100561.00;;;12.50
22322;BMP180;11328;53.928;18.522;2023-10-09T08:56:39;100576.00;;;12.90
22322;BMP180;11328;53.928;18.522;2023-10-09T08:59:20;100563.00;;;13.30
22322;BMP180;11328;53.928;18.522;2023-10-09T09:01:49;100576.00;;;13.50
22322;BMP180;11328;53.928;18.522;2023-10-09T09:04:40;100578.00;;;13.80
22322;BMP180;11328;53.928;18.522;2023-10-09T09:07:25;100570.00;;;14.00
22322;BMP180;11328;53.928;18.522;2023-10-09T09:10:00;100575.00;;;14.40
22322;BMP180;11328;53.928;18.522;2023-10-09T09:12:44;100575.00;;;14.50
22322;BMP180;11328;53.928;18.522;2023-10-09T09:15:14;100572.00;;;14.50
22322;BMP180;11328;53.928;18.522;2023-10-09T09:17:47;100580.00;;;14.60
22322;BMP180;11328;53.928;18.522;2023-10-09T09:20:26;100579.00;;;14.50
22322;BMP180;11328;53.928;18.522;2023-10-09T09:23:13;100578.00;;;14.70
22322;BMP180;11328;53.928;18.522;2023-10-09T09:25:47;100579.00;;;14.90
22322;BMP180;11328;53.928;18.522;2023-10-09T09:28:25;100573.00;;;15.00
22322;BMP180;11328;53.928;18.522;2023-10-09T09:31:09;100569.00;;;15.40
22322;BMP180;11328;53.928;18.522;2023-10-09T09:33:56;100574.00;;;15.40
22322;BMP180;11328;53.928;18.522;2023-10-09T09:36:25;100574.00;;;15.20
22322;BMP180;11328;53.928;18.522;2023-10-09T09:38:58;100571.00;;;15.00
22322;BMP180;11328;53.928;18.522;2023-10-09T09:41:30;100570.00;;;15.50
22322;BMP180;11328;53.928;18.522;2023-10-09T09:44:00;100564.00;;;15.40
22322;BMP180;11328;53.928;18.522;2023-10-09T09:46:34;100575.00;;;15.40
22322;BMP180;11328;53.928;18.522;2023-10-09T09:49:06;100571.00;;;15.20
22322;BMP180;11328;53.928;18.522;2023-10-09T09:52:03;100572.00;;;15.50
22322;BMP180;11328;53.928;18.522;2023-10-09T09:54:38;100587.00;;;15.70
22322;BMP180;11328;53.928;18.522;2023-10-09T09:57:07;100583.00;;;15.80
22322;BMP180;11328;53.928;18.522;2023-10-09T09:59:39;100587.00;;;15.60
22322;BMP180;11328;53.928;18.522;2023-10-09T10:02:36;100578.00;;;15.90
22322;BMP180;11328;53.928;18.522;2023-10-09T10:05:08;100582.00;;;16.20
22322;BMP180;11328;53.928;18.522;2023-10-09T10:07:38;100576.00;;;15.70
22322;BMP180;11328;53.928;18.522;2023-10-09T10:10:34;100580.00;;;15.70
22322;BMP180;11328;53.928;18.522;2023-10-09T10:13:01;100575.00;;;15.70
22322;BMP180;11328;53.928;18.522;2023-10-09T10:16:11;100564.00;;;15.50
22322;BMP180;11328;53.928;18.522;2023-10-09T10:21:34;100564.00;;;16.00
22322;BMP180;11328;53.928;18.522;2023-10-09T10:32:55;100557.00;;;16.20
22322;BMP180;11328;53.928;18.522;2023-10-09T10:35:36;100532.00;;;16.10
22322;BMP180;11328;53.928;18.522;2023-10-09T10:38:33;100533.00;;;16.10
22322;BMP180;11328;53.928;18.522;2023-10-09T10:41:14;100548.00;;;16.20
22322;BMP180;11328;53.928;18.522;2023-10-09T10:43:46;100553.00;;;16.30
22322;BMP180;11328;53.928;18.522;2023-10-09T10:46:22;100571.00;;;16.40
22322;BMP180;11328;53.928;18.522;2023-10-09T10:49:07;100559.00;;;16.30
22322;BMP180;11328;53.928;18.522;2023-10-09T10:51:38;100556.00;;;16.10
22322;BMP180;11328;53.928;18.522;2023-10-09T10:54:09;100557.00;;;15.60
22322;BMP180;11328;53.928;18.522;2023-10-09T10:56:55;100545.00;;;15.30
22322;BMP180;11328;53.928;18.522;2023-10-09T10:59:24;100550.00;;;15.50
22322;BMP180;11328;53.928;18.522;2023-10-09T11:01:56;100554.00;;;15.50
22322;BMP180;11328;53.928;18.522;2023-10-09T11:04:25;100547.00;;;15.40
22322;BMP180;11328;53.928;18.522;2023-10-09T11:07:01;100550.00;;;15.60
22322;BMP180;11328;53.928;18.522;2023-10-09T11:09:56;100552.00;;;15.60
22322;BMP180;11328;53.928;18.522;2023-10-09T11:15:35;100555.00;;;15.60
22322;BMP180;11328;53.928;18.522;2023-10-09T11:18:13;100541.00;;;15.30
22322;BMP180;11328;53.928;18.522;2023-10-09T11:20:57;100537.00;;;15.70
22322;BMP180;11328;53.928;18.522;2023-10-09T11:23:33;100534.00;;;15.30
22322;BMP180;11328;53.928;18.522;2023-10-09T11:26:06;100540.00;;;15.40
22322;BMP180;11328;53.928;18.522;2023-10-09T11:29:13;100527.00;;;15.40
22322;BMP180;11328;53.928;18.522;2023-10-09T11:32:04;100525.00;;;15.50
22322;BMP180;11328;53.928;18.522;2023-10-09T11:34:41;100514.00;;;15.40
22322;BMP180;11328;53.928;18.522;2023-10-09T11:37:13;100519.00;;;15.50
22322;BMP180;11328;53.928;18.522;2023-10-09T11:39:59;100517.00;;;15.50
22322;BMP180;11328;53.928;18.522;2023-10-09T11:42:29;100512.00;;;15.60
22322;BMP180;11328;53.928;18.522;2023-10-09T11:45:23;100513.00;;;15.80
22322;BMP180;11328;53.928;18.522;2023-10-09T11:47:53;100481.00;;;15.90
22322;BMP180;11328;53.928;18.522;2023-10-09T11:50:47;100487.00;;;15.80
22322;BMP180;11328;53.928;18.522;2023-10-09T11:53:19;100480.00;;;15.70
22322;BMP180;11328;53.928;18.522;2023-10-09T11:56:00;100478.00;;;15.40
22322;BMP180;11328;53.928;18.522;2023-10-09T11:58:27;100483.00;;;15.20
22322;BMP180;11328;53.928;18.522;2023-10-09T12:00:56;100477.00;;;15.00
22322;BMP180;11328;53.928;18.522;2023-10-09T12:03:29;100474.00;;;14.80
22322;BMP180;11328;53.928;18.522;2023-10-09T12:05:59;100482.00;;;14.80
22322;BMP180;11328;53.928;18.522;2023-10-09T12:08:34;100466.00;;;15.00
22322;BMP180;11328;53.928;18.522;2023-10-09T12:11:03;100462.00;;;15.20
22322;BMP180;11328;53.928;18.522;2023-10-09T12:13:36;100450.00;;;15.30
22322;BMP180;11328;53.928;18.522;2023-10-09T12:16:05;100457.00;;;15.30
22322;BMP180;11328;53.928;18.522;2023-10-09T12:18:38;100463.00;;;15.50
22322;BMP180;11328;53.928;18.522;2023-10-09T12:21:08;100443.00;;;15.60
22322;BMP180;11328;53.928;18.522;2023-10-09T12:23:42;100459.00;;;15.60
22322;BMP180;11328;53.928;18.522;2023-10-09T12:26:14;100462.00;;;15.60
22322;BMP180;11328;53.928;18.522;2023-10-09T12:28:45;100455.00;;;15.60
22322;BMP180;11328;53.928;18.522;2023-10-09T12:31:14;100445.00;;;15.60
22322;BMP180;11328;53.928;18.522;2023-10-09T12:33:42;100447.00;;;15.50
22322;BMP180;11328;53.928;18.522;2023-10-09T12:36:15;100452.00;;;15.20
22322;BMP180;11328;53.928;18.522;2023-10-09T12:38:48;100457.00;;;15.30
22322;BMP180;11328;53.928;18.522;2023-10-09T12:41:20;100456.00;;;15.30
22322;BMP180;11328;53.928;18.522;2023-10-09T12:43:55;100460.00;;;15.30
22322;BMP180;11328;53.928;18.522;2023-10-09T12:46:25;100457.00;;;15.20
22322;BMP180;11328;53.928;18.522;2023-10-09T12:48:53;100459.00;;;15.30
22322;BMP180;11328;53.928;18.522;2023-10-09T12:51:24;100456.00;;;15.30
22322;BMP180;11328;53.928;18.522;2023-10-09T12:53:57;100455.00;;;15.40
22322;BMP180;11328;53.928;18.522;2023-10-09T12:56:25;100446.00;;;15.20
22322;BMP180;11328;53.928;18.522;2023-10-09T12:59:05;100452.00;;;15.00
22322;BMP180;11328;53.928;18.522;2023-10-09T13:01:42;100467.00;;;14.80
22322;BMP180;11328;53.928;18.522;2023-10-09T13:04:14;100458.00;;;14.90
22322;BMP180;11328;53.928;18.522;2023-10-09T13:06:44;100462.00;;;15.00
22322;BMP180;11328;53.928;18.522;2023-10-09T13:09:17;100458.00;;;15.00
22322;BMP180;11328;53.928;18.522;2023-10-09T13:12:07;100454.00;;;15.10
22322;BMP180;11328;53.928;18.522;2023-10-09T13:14:45;100459.00;;;15.00
22322;BMP180;11328;53.928;18.522;2023-10-09T13:17:14;100465.00;;;14.90
22322;BMP180;11328;53.928;18.522;2023-10-09T13:19:41;100461.00;;;14.90
22322;BMP180;11328;53.928;18.522;2023-10-09T13:22:11;100473.00;;;14.80
22322;BMP180;11328;53.928;18.522;2023-10-09T13:24:40;100459.00;;;14.50
22322;BMP180;11328;53.928;18.522;2023-10-09T13:27:09;100450.00;;;14.80
22322;BMP180;11328;53.928;18.522;2023-10-09T13:29:37;100465.00;;;14.60
22322;BMP180;11328;53.928;18.522;2023-10-09T13:32:08;100384.00;;;14.60
22322;BMP180;11328;53.928;18.522;2023-10-09T13:34:42;100375.00;;;14.60
22322;BMP180;11328;53.928;18.522;2023-10-09T13:37:12;100452.00;;;14.50
22322;BMP180;11328;53.928;18.522;2023-10-09T13:39:40;100459.00;;;14.70
22322;BMP180;11328;53.928;18.522;2023-10-09T13:42:19;100452.00;;;14.80
22322;BMP180;11328;53.928;18.522;2023-10-09T13:44:50;100452.00;;;14.90
22322;BMP180;11328;53.928;18.522;2023-10-09T13:47:20;100437.00;;;15.00
22322;BMP180;11328;53.928;18.522;2023-10-09T13:49:48;100435.00;;;14.90
22322;BMP180;11328;53.928;18.522;2023-10-09T13:52:19;100443.00;;;15.00
22322;BMP180;11328;53.928;18.522;2023-10-09T13:54:48;100438.00;;;14.90
22322;BMP180;11328;53.928;18.522;2023-10-09T13:57:17;100437.00;;;14.80
22322;BMP180;11328;53.928;18.522;2023-10-09T13:59:44;100449.00;;;14.70
22322;BMP180;11328;53.928;18.522;2023-10-09T14:02:17;100423.00;;;14.80
22322;BMP180;11328;53.928;18.522;2023-10-09T14:04:46;100446.00;;;14.60
22322;BMP180;11328;53.928;18.522;2023-10-09T14:07:15;100424.00;;;14.60
22322;BMP180;11328;53.928;18.522;2023-10-09T14:09:44;100435.00;;;14.50
22322;BMP180;11328;53.928;18.522;2023-10-09T14:12:11;100442.00;;;14.70
22322;BMP180;11328;53.928;18.522;2023-10-09T14:14:45;100442.00;;;14.70
22322;BMP180;11328;53.928;18.522;2023-10-09T14:17:18;100438.00;;;14.60
22322;BMP180;11328;53.928;18.522;2023-10-09T14:19:55;100438.00;;;14.60
22322;BMP180;11328;53.928;18.522;2023-10-09T14:22:28;100430.00;;;14.60
22322;BMP180;11328;53.928;18.522;2023-10-09T14:24:56;100434.00;;;14.50
22322;BMP180;11328;53.928;18.522;2023-10-09T14:27:26;100431.00;;;14.50
22322;BMP180;11328;53.928;18.522;2023-10-09T14:29:55;100438.00;;;14.60
22322;BMP180;11328;53.928;18.522;2023-10-09T14:32:23;100443.00;;;14.50
22322;BMP180;11328;53.928;18.522;2023-10-09T14:35:01;100440.00;;;14.60
22322;BMP180;11328;53.928;18.522;2023-10-09T14:37:29;100455.00;;;14.70
22322;BMP180;11328;53.928;18.522;2023-10-09T14:39:59;100461.00;;;14.80
22322;BMP180;11328;53.928;18.522;2023-10-09T14:42:26;100458.00;;;14.70
22322;BMP180;11328;53.928;18.522;2023-10-09T14:44:55;100456.00;;;14.60
22322;BMP180;11328;53.928;18.522;2023-10-09T14:47:22;100451.00;;;14.50
22322;BMP180;11328;53.928;18.522;2023-10-09T14:49:50;100447.00;;;14.60
22322;BMP180;11328;53.928;18.522;2023-10-09T14:52:19;100445.00;;;14.60
22322;BMP180;11328;53.928;18.522;2023-10-09T14:55:06;100447.00;;;14.70
22322;BMP180;11328;53.928;18.522;2023-10-09T14:57:33;100455.00;;;14.80